createdAt,value
2023-05-05T00:00:22.035Z,11.00
2023-05-05T00:03:11.353Z,16.05
2023-05-05T00:05:40.654Z,10.00
2023-05-05T00:08:09.645Z,12.30
2023-05-05T00:10:40.355Z,9.75
2023-05-05T00:13:10.424Z,11.48
2023-05-05T00:15:41.551Z,10.18
2023-05-05T00:18:13.268Z,8.57
2023-05-05T00:20:41.006Z,11.77
2023-05-05T00:23:08.168Z,16.23
2023-05-05T00:25:35.756Z,9.70
2023-05-05T00:28:02.771Z,9.90
2023-05-05T00:30:30.236Z,10.52
2023-05-05T00:32:57.432Z,8.93
2023-05-05T00:35:24.928Z,10.82
2023-05-05T00:37:52.019Z,12.23
2023-05-05T00:40:19.348Z,8.27
2023-05-05T00:42:52.756Z,7.43
2023-05-05T00:45:21.313Z,9.85
2023-05-05T00:48:02.573Z,8.13
2023-05-05T00:50:32.536Z,9.57
2023-05-05T00:53:06.576Z,11.05
2023-05-05T00:55:37.737Z,7.43
2023-05-05T00:58:07.431Z,11.50
2023-05-05T01:00:36.105Z,8.15
2023-05-05T01:03:06.941Z,12.00
2023-05-05T01:05:57.528Z,7.07
2023-05-05T01:08:39.012Z,7.38
2023-05-05T01:11:28.087Z,10.18
2023-05-05T01:14:20.276Z,8.98
2023-05-05T01:17:09.578Z,9.82
2023-05-05T01:19:57.002Z,9.55
2023-05-05T01:22:42.568Z,8.55
2023-05-05T01:25:27.102Z,11.65
2023-05-05T01:29:04.289Z,9.95
2023-05-05T01:31:55.084Z,9.65
2023-05-05T01:34:37.052Z,8.43
2023-05-05T01:37:16.712Z,9.55
2023-05-05T01:39:50.094Z,8.00
2023-05-05T01:42:20.725Z,11.77
2023-05-05T01:44:52.224Z,11.77
2023-05-05T01:47:23.649Z,9.63
2023-05-05T01:49:52.467Z,10.50
2023-05-05T01:52:21.856Z,11.43
2023-05-05T01:54:52.650Z,11.10
2023-05-05T01:57:23.194Z,8.60
2023-05-05T01:59:53.273Z,7.95
2023-05-05T02:02:23.325Z,7.47
2023-05-05T02:04:54.685Z,10.07
2023-05-05T02:07:23.746Z,9.95
2023-05-05T02:09:53.373Z,10.55
2023-05-05T02:12:22.689Z,9.82
2023-05-05T02:14:52.332Z,11.10
2023-05-05T02:17:23.267Z,9.93
2023-05-05T02:19:53.204Z,11.45
2023-05-05T02:22:20.810Z,9.43
2023-05-05T02:24:49.219Z,10.65
2023-05-05T02:27:20.967Z,8.27
2023-05-05T02:29:54.352Z,14.05
2023-05-05T02:32:33.744Z,10.23
2023-05-05T02:35:18.223Z,7.95
2023-05-05T02:37:51.651Z,9.23
2023-05-05T02:40:26.544Z,13.18
2023-05-05T02:42:57.453Z,9.48
2023-05-05T02:45:27.837Z,8.70
2023-05-05T02:47:57.468Z,10.23
2023-05-05T02:50:24.832Z,10.07
2023-05-05T02:52:51.905Z,12.38
2023-05-05T02:55:19.802Z,8.48
2023-05-05T02:58:11.699Z,13.27
2023-05-05T03:00:53.698Z,9.68
2023-05-05T03:03:46.421Z,9.02
2023-05-05T03:06:21.471Z,11.52
2023-05-05T03:09:16.124Z,11.00
2023-05-05T03:12:20.464Z,9.45
2023-05-05T03:14:54.408Z,11.57
2023-05-05T03:17:24.689Z,9.65
2023-05-05T03:19:52.753Z,9.80
2023-05-05T03:22:20.197Z,10.07
2023-05-05T03:24:54.845Z,13.40
2023-05-05T03:27:25.922Z,12.95
2023-05-05T03:29:56.130Z,10.75
2023-05-05T03:32:26.609Z,12.57
2023-05-05T03:34:56.692Z,10.52
2023-05-05T03:37:26.451Z,12.50
2023-05-05T03:39:54.824Z,19.08
2023-05-05T03:42:24.428Z,10.85
2023-05-05T03:44:56.834Z,9.88
2023-05-05T03:47:26.462Z,10.13
2023-05-05T03:49:56.291Z,15.48
2023-05-05T03:52:25.801Z,8.90
2023-05-05T03:54:55.145Z,10.75
2023-05-05T03:57:24.983Z,12.77
2023-05-05T03:59:54.558Z,9.13
2023-05-05T04:02:23.753Z,11.73
2023-05-05T04:04:53.176Z,9.85
2023-05-05T04:07:24.884Z,9.68
2023-05-05T04:09:57.508Z,12.13
2023-05-05T04:12:28.187Z,10.52
2023-05-05T04:14:58.131Z,13.20
2023-05-05T04:17:27.419Z,16.65
2023-05-05T04:19:55.317Z,9.63
2023-05-05T04:22:26.966Z,14.52
2023-05-05T04:24:57.215Z,10.27
2023-05-05T04:27:30.039Z,15.95
2023-05-05T04:29:59.199Z,13.10
2023-05-05T04:32:29.061Z,10.65
2023-05-05T04:34:57.756Z,11.93
2023-05-05T04:37:28.960Z,10.10
2023-05-05T04:39:57.369Z,11.90
2023-05-05T04:42:24.879Z,10.13
2023-05-05T04:44:54.811Z,16.70
2023-05-05T04:47:24.390Z,10.00
2023-05-05T04:49:56.509Z,9.23
2023-05-05T04:52:24.459Z,11.40
2023-05-05T04:54:51.950Z,12.05
2023-05-05T04:57:20.122Z,8.98
2023-05-05T04:59:47.299Z,10.43
2023-05-05T05:02:14.850Z,11.27
2023-05-05T05:04:42.113Z,12.70
2023-05-05T05:07:09.628Z,12.77
2023-05-05T05:09:38.065Z,10.32
2023-05-05T05:12:07.408Z,12.88
2023-05-05T05:14:40.612Z,12.13
2023-05-05T05:17:08.122Z,10.10
2023-05-05T05:19:37.553Z,12.30
2023-05-05T05:22:07.959Z,9.63
2023-05-05T05:24:36.899Z,10.77
2023-05-05T05:27:09.848Z,11.48
2023-05-05T05:29:38.045Z,14.18
2023-05-05T05:32:05.783Z,11.68
2023-05-05T05:34:33.069Z,16.50
2023-05-05T05:37:00.581Z,14.88
2023-05-05T05:39:27.647Z,13.20
2023-05-05T05:41:55.227Z,12.35
2023-05-05T05:44:22.749Z,12.65
2023-05-05T05:46:50.008Z,12.43
2023-05-05T05:49:17.328Z,14.57
2023-05-05T05:51:44.738Z,12.68
2023-05-05T05:54:12.065Z,11.57
2023-05-05T05:56:40.286Z,11.63
2023-05-05T05:59:10.752Z,16.58
2023-05-05T06:01:40.463Z,12.88
2023-05-05T06:04:08.136Z,18.58
2023-05-05T06:06:35.658Z,15.93
2023-05-05T06:09:03.613Z,14.25
2023-05-05T06:11:31.077Z,14.43
2023-05-05T06:13:58.729Z,19.48
2023-05-05T06:16:26.214Z,17.83
2023-05-05T06:18:53.470Z,20.02
2023-05-05T06:21:21.006Z,19.95
2023-05-05T06:23:48.171Z,17.45
2023-05-05T06:26:15.829Z,15.57
2023-05-05T06:28:42.922Z,15.52
2023-05-05T06:31:12.961Z,20.90
2023-05-05T06:33:40.056Z,21.80
2023-05-05T06:36:07.806Z,14.50
2023-05-05T06:38:35.131Z,15.07
2023-05-05T06:41:02.748Z,15.35
2023-05-05T06:43:29.880Z,14.85
2023-05-05T06:45:57.212Z,10.52
2023-05-05T06:48:24.499Z,11.93
2023-05-05T06:50:52.097Z,19.83
2023-05-05T06:53:19.167Z,10.35
2023-05-05T06:55:48.189Z,15.32
2023-05-05T06:58:15.300Z,13.30
2023-05-05T07:00:42.837Z,9.13
2023-05-05T07:03:10.095Z,10.52
2023-05-05T07:05:37.691Z,16.15
2023-05-05T07:08:05.519Z,9.45
2023-05-05T07:10:33.640Z,11.18
2023-05-05T07:13:01.070Z,8.35
2023-05-05T07:15:29.807Z,14.82
2023-05-05T07:17:58.248Z,11.23
2023-05-05T07:20:26.194Z,9.23
2023-05-05T07:22:53.306Z,10.70
2023-05-05T07:25:21.953Z,11.65
2023-05-05T07:27:49.186Z,10.27
2023-05-05T07:30:18.660Z,8.73
2023-05-05T07:32:46.162Z,12.63
2023-05-05T07:35:13.852Z,12.05
2023-05-05T07:37:41.020Z,11.20
2023-05-05T07:40:09.361Z,10.13
2023-05-05T07:42:36.667Z,12.20
2023-05-05T07:45:05.435Z,14.32
2023-05-05T07:47:33.304Z,11.38
2023-05-05T07:50:01.400Z,7.63
2023-05-05T07:52:44.207Z,12.68
2023-05-05T07:55:15.742Z,12.05
2023-05-05T07:57:43.007Z,14.23
2023-05-05T08:00:11.604Z,12.07
2023-05-05T08:02:39.249Z,11.57
2023-05-05T08:05:07.595Z,14.20
2023-05-05T08:07:36.652Z,14.32
2023-05-05T08:10:04.365Z,13.43
2023-05-05T08:12:31.592Z,15.20
2023-05-05T08:14:59.232Z,10.48
2023-05-05T08:17:27.154Z,14.95
2023-05-05T08:19:54.723Z,10.45
2023-05-05T08:22:22.721Z,9.90
2023-05-05T08:24:50.067Z,11.00
2023-05-05T08:27:17.260Z,14.15
2023-05-05T08:29:44.694Z,11.35
2023-05-05T08:32:11.813Z,8.25
2023-05-05T08:34:39.297Z,13.07
2023-05-05T08:37:07.166Z,7.38
2023-05-05T08:39:34.999Z,8.55
2023-05-05T08:42:03.549Z,11.13
2023-05-05T08:44:31.126Z,8.27
2023-05-05T08:47:02.054Z,10.77
2023-05-05T08:49:40.520Z,10.15
2023-05-05T08:52:11.855Z,5.88
2023-05-05T08:54:50.353Z,9.68
2023-05-05T08:57:28.561Z,11.43
2023-05-05T08:59:58.935Z,7.13
2023-05-05T09:02:30.060Z,9.73
2023-05-05T09:04:57.785Z,11.27
2023-05-05T09:07:25.571Z,9.00
2023-05-05T09:09:53.529Z,11.63
2023-05-05T09:12:22.214Z,8.07
2023-05-05T09:14:49.589Z,8.18
2023-05-05T09:17:26.921Z,6.10
2023-05-05T09:20:07.458Z,7.60
2023-05-05T09:22:41.447Z,7.50
2023-05-05T09:25:17.907Z,5.97
2023-05-05T09:27:48.422Z,4.90
2023-05-05T09:30:23.463Z,6.22
2023-05-05T09:32:55.855Z,8.15
2023-05-05T09:35:23.729Z,7.13
2023-05-05T09:37:51.155Z,7.45
2023-05-05T09:40:20.536Z,6.35
2023-05-05T09:42:48.552Z,4.97
2023-05-05T09:45:19.298Z,8.68
2023-05-05T09:47:48.141Z,12.63
2023-05-05T09:50:19.021Z,7.20
2023-05-05T09:53:01.684Z,5.10
2023-05-05T09:55:33.539Z,5.60
2023-05-05T09:58:20.631Z,8.40
2023-05-05T10:00:48.155Z,5.05
2023-05-05T10:03:16.138Z,4.32
2023-05-05T10:06:09.942Z,6.55
2023-05-05T10:08:37.116Z,6.95
2023-05-05T10:11:06.930Z,7.13
2023-05-05T10:13:42.095Z,5.47
2023-05-05T10:16:13.252Z,7.10
2023-05-05T10:18:46.720Z,7.13
2023-05-05T10:21:21.691Z,5.32
2023-05-05T10:23:58.623Z,4.65
2023-05-05T10:26:28.413Z,4.97
2023-05-05T10:28:56.966Z,6.38
2023-05-05T10:31:48.895Z,6.78
2023-05-05T10:34:37.840Z,10.23
2023-05-05T10:37:07.259Z,4.40
2023-05-05T10:39:37.662Z,4.82
2023-05-05T10:42:05.336Z,4.00
2023-05-05T10:44:33.389Z,6.38
2023-05-05T10:47:02.740Z,7.35
2023-05-05T10:50:02.576Z,9.60
2023-05-05T10:53:15.472Z,5.97
2023-05-05T10:55:58.806Z,5.10
2023-05-05T10:58:59.642Z,8.27
2023-05-05T11:01:36.519Z,5.00
2023-05-05T11:04:24.025Z,4.60
2023-05-05T11:07:11.769Z,10.30
2023-05-05T11:10:06.729Z,3.85
2023-05-05T11:13:00.155Z,3.17
2023-05-05T11:15:34.471Z,4.85
2023-05-05T11:18:05.021Z,3.63
2023-05-05T11:20:36.840Z,6.00
2023-05-05T11:23:21.989Z,4.22
2023-05-05T11:25:51.429Z,4.10
2023-05-05T11:28:25.668Z,5.85
2023-05-05T11:30:56.934Z,4.80
2023-05-05T11:33:38.688Z,3.20
2023-05-05T11:36:14.688Z,4.63
2023-05-05T11:39:22.208Z,7.38
2023-05-05T11:42:23.592Z,3.55
2023-05-05T11:44:51.321Z,3.08
2023-05-05T11:47:18.577Z,4.13
2023-05-05T11:49:46.941Z,3.55
2023-05-05T11:52:15.141Z,3.38
2023-05-05T11:54:47.949Z,3.60
2023-05-05T11:57:20.222Z,5.30
2023-05-05T11:59:57.023Z,3.03
2023-05-05T12:02:26.642Z,6.10
2023-05-05T12:04:54.512Z,5.53
2023-05-05T12:07:25.011Z,4.40
2023-05-05T12:09:52.966Z,7.22
2023-05-05T12:12:21.143Z,6.90
2023-05-05T12:14:53.037Z,8.82
2023-05-05T12:17:23.035Z,3.50
2023-05-05T12:19:54.162Z,2.42
2023-05-05T12:22:26.732Z,4.82
2023-05-05T12:24:58.941Z,2.67
2023-05-05T12:27:28.181Z,7.38
2023-05-05T12:29:57.326Z,1.98
2023-05-05T12:32:28.320Z,3.63
2023-05-05T12:34:59.388Z,7.82
2023-05-05T12:37:27.743Z,4.03
2023-05-05T12:39:57.373Z,2.20
2023-05-05T12:42:24.624Z,2.97
2023-05-05T12:44:52.222Z,2.08
2023-05-05T12:47:45.943Z,2.40
2023-05-05T12:50:13.032Z,5.38
2023-05-05T12:52:45.324Z,2.70
2023-05-05T12:55:13.035Z,2.80
2023-05-05T12:58:04.683Z,2.58
2023-05-05T13:00:31.975Z,1.85
2023-05-05T13:02:59.310Z,5.80
2023-05-05T13:05:33.969Z,3.95
2023-05-05T13:08:01.143Z,4.40
2023-05-05T13:10:31.401Z,2.15
2023-05-05T13:12:58.785Z,2.47
2023-05-05T13:15:26.188Z,4.50
2023-05-05T13:18:01.339Z,2.38
2023-05-05T13:20:28.598Z,2.05
2023-05-05T13:22:55.879Z,3.50
2023-05-05T13:25:22.910Z,2.78
2023-05-05T13:27:50.335Z,2.45
2023-05-05T13:30:17.348Z,6.45
2023-05-05T13:32:44.634Z,2.50
2023-05-05T13:35:13.851Z,4.88
2023-05-05T13:37:44.322Z,2.50
2023-05-05T13:40:13.384Z,2.38
2023-05-05T13:42:40.638Z,3.47
2023-05-05T13:45:08.428Z,3.22
2023-05-05T13:47:36.224Z,2.85
2023-05-05T13:50:03.488Z,4.38
2023-05-05T13:52:32.128Z,6.13
2023-05-05T13:55:00.922Z,4.45
2023-05-05T13:57:28.298Z,1.70
2023-05-05T13:59:55.276Z,5.43
2023-05-05T14:02:22.537Z,3.85
2023-05-05T14:04:49.537Z,2.53
2023-05-05T14:07:16.911Z,2.13
2023-05-05T14:09:43.842Z,5.40
2023-05-05T14:12:11.032Z,1.88
2023-05-05T14:14:38.091Z,2.33
2023-05-05T14:17:05.400Z,3.60
2023-05-05T14:19:32.487Z,1.98
2023-05-05T14:21:59.652Z,2.20
2023-05-05T14:24:27.255Z,2.88
2023-05-05T14:26:54.456Z,3.17
2023-05-05T14:29:21.389Z,2.42
2023-05-05T14:31:48.548Z,5.13
2023-05-05T14:34:15.560Z,2.75
2023-05-05T14:36:42.761Z,3.03
2023-05-05T14:39:09.709Z,1.70
2023-05-05T14:41:36.874Z,4.40
2023-05-05T14:44:03.972Z,3.33
2023-05-05T14:46:31.876Z,1.90
2023-05-05T14:48:59.080Z,2.90
2023-05-05T14:51:26.336Z,2.13
2023-05-05T14:53:53.336Z,2.78
2023-05-05T14:56:22.840Z,2.25
2023-05-05T14:58:50.171Z,2.47
2023-05-05T15:01:17.509Z,2.92
2023-05-05T15:03:44.599Z,2.70
2023-05-05T15:06:12.261Z,2.13
2023-05-05T15:08:39.244Z,3.20
2023-05-05T15:11:06.974Z,2.55
2023-05-05T15:13:33.947Z,1.83
2023-05-05T15:16:01.447Z,2.38
2023-05-05T15:18:28.470Z,2.53
2023-05-05T15:20:55.725Z,2.45
2023-05-05T15:23:22.690Z,2.83
2023-05-05T15:25:50.020Z,1.67
2023-05-05T15:28:17.497Z,2.50
2023-05-05T15:30:45.297Z,3.55
2023-05-05T15:33:12.203Z,2.45
2023-05-05T15:35:39.396Z,5.18
2023-05-05T15:38:06.377Z,2.60
2023-05-05T15:40:33.833Z,1.83
2023-05-05T15:43:00.862Z,2.67
2023-05-05T15:45:28.137Z,5.50
2023-05-05T15:47:55.034Z,2.55
2023-05-05T15:50:23.395Z,2.30
2023-05-05T15:52:50.433Z,2.13
2023-05-05T15:55:17.796Z,3.72
2023-05-05T15:57:44.757Z,2.17
2023-05-05T16:00:13.080Z,3.95
2023-05-05T16:02:40.209Z,3.50
2023-05-05T16:05:08.298Z,3.60
2023-05-05T16:07:35.519Z,3.85
2023-05-05T16:10:03.750Z,2.60
2023-05-05T16:12:31.131Z,4.00
2023-05-05T16:14:58.771Z,4.32
2023-05-05T16:17:25.826Z,3.05
2023-05-05T16:19:53.134Z,2.33
2023-05-05T16:22:21.070Z,3.25
2023-05-05T16:24:48.375Z,1.80
2023-05-05T16:27:15.484Z,1.98
2023-05-05T16:29:42.718Z,7.65
2023-05-05T16:32:09.640Z,3.17
2023-05-05T16:34:36.826Z,2.65
2023-05-05T16:37:03.884Z,3.85
2023-05-05T16:39:32.982Z,2.20
2023-05-05T16:41:59.990Z,2.35
2023-05-05T16:44:27.317Z,1.98
2023-05-05T16:46:54.268Z,4.63
2023-05-05T16:49:24.128Z,4.57
2023-05-05T16:51:53.507Z,3.15
2023-05-05T16:54:20.773Z,3.47
2023-05-05T16:56:47.686Z,2.72
2023-05-05T16:59:18.347Z,2.72
2023-05-05T17:01:45.406Z,4.10
2023-05-05T17:04:12.532Z,2.45
2023-05-05T17:06:39.528Z,2.10
2023-05-05T17:09:06.768Z,6.55
2023-05-05T17:11:33.753Z,2.60
2023-05-05T17:14:01.667Z,3.45
2023-05-05T17:16:28.783Z,2.95
2023-05-05T17:18:55.985Z,2.33
2023-05-05T17:21:23.528Z,3.30
2023-05-05T17:23:50.977Z,2.88
2023-05-05T17:26:17.982Z,2.65
2023-05-05T17:28:45.242Z,4.93
2023-05-05T17:31:12.651Z,5.63
2023-05-05T17:33:40.056Z,3.95
2023-05-05T17:36:07.380Z,2.00
2023-05-05T17:38:34.760Z,3.55
2023-05-05T17:41:02.122Z,2.22
2023-05-05T17:43:29.359Z,3.95
2023-05-05T17:45:56.328Z,3.05
2023-05-05T17:48:23.675Z,12.52
2023-05-05T17:50:50.647Z,4.43
2023-05-05T17:53:17.885Z,4.28
2023-05-05T17:55:46.156Z,3.28
2023-05-05T17:58:13.824Z,4.82
2023-05-05T18:00:40.969Z,3.15
2023-05-05T18:03:08.323Z,2.90
2023-05-05T18:05:35.778Z,2.60
2023-05-05T18:08:03.282Z,6.53
2023-05-05T18:10:30.421Z,4.85
2023-05-05T18:12:57.875Z,2.97
2023-05-05T18:15:25.205Z,2.53
2023-05-05T18:17:53.849Z,5.53
2023-05-05T18:20:20.918Z,2.97
2023-05-05T18:22:49.200Z,5.00
2023-05-05T18:25:16.182Z,3.08
2023-05-05T18:27:44.498Z,5.78
2023-05-05T18:30:12.402Z,2.88
2023-05-05T18:32:39.565Z,4.00
2023-05-05T18:35:07.376Z,3.35
2023-05-05T18:37:35.025Z,4.38
2023-05-05T18:40:01.947Z,3.80
2023-05-05T18:42:29.275Z,4.07
2023-05-05T18:44:56.240Z,3.22
2023-05-05T18:47:23.681Z,3.45
2023-05-05T18:49:50.675Z,4.10
2023-05-05T18:52:17.970Z,4.00
2023-05-05T18:54:44.914Z,5.90
2023-05-05T18:57:12.282Z,3.38
2023-05-05T18:59:39.294Z,5.47
2023-05-05T19:02:07.963Z,6.35
2023-05-05T19:04:38.739Z,6.63
2023-05-05T19:07:06.034Z,7.55
2023-05-05T19:09:33.047Z,3.85
2023-05-05T19:12:00.194Z,6.93
2023-05-05T19:14:27.276Z,3.15
2023-05-05T19:16:55.949Z,3.30
2023-05-05T19:19:23.196Z,2.90
2023-05-05T19:21:50.734Z,4.20
2023-05-05T19:24:17.726Z,5.57
2023-05-05T19:26:44.969Z,5.20
2023-05-05T19:29:13.010Z,6.28
2023-05-05T19:31:40.323Z,8.40
2023-05-05T19:34:07.547Z,3.90
2023-05-05T19:36:34.858Z,17.27
2023-05-05T19:39:04.347Z,5.13
2023-05-05T19:41:31.774Z,2.88
2023-05-05T19:43:58.792Z,5.50
2023-05-05T19:46:26.721Z,5.82
2023-05-05T19:48:53.904Z,3.65
2023-05-05T19:51:21.237Z,3.28
2023-05-05T19:53:48.398Z,4.15
2023-05-05T19:56:16.996Z,5.30
2023-05-05T19:58:57.652Z,5.97
2023-05-05T20:01:25.982Z,4.78
2023-05-05T20:03:54.944Z,4.60
2023-05-05T20:06:23.008Z,3.78
2023-05-05T20:08:49.990Z,6.10
2023-05-05T20:11:17.837Z,2.80
2023-05-05T20:13:44.912Z,5.28
2023-05-05T20:16:12.337Z,5.50
2023-05-05T20:18:40.244Z,7.28
2023-05-05T20:21:07.428Z,5.82
2023-05-05T20:23:34.342Z,6.82
2023-05-05T20:26:01.763Z,4.80
2023-05-05T20:28:31.485Z,3.45
2023-05-05T20:30:58.677Z,4.43
2023-05-05T20:33:25.903Z,7.63
2023-05-05T20:35:53.081Z,4.45
2023-05-05T20:38:20.080Z,6.53
2023-05-05T20:40:47.320Z,4.47
2023-05-05T20:43:14.327Z,5.40
2023-05-05T20:45:41.533Z,4.40
2023-05-05T20:48:11.186Z,5.75
2023-05-05T20:50:39.279Z,5.28
2023-05-05T20:53:11.787Z,5.63
2023-05-05T20:55:38.977Z,4.03
2023-05-05T20:58:09.198Z,4.65
2023-05-05T21:00:36.583Z,6.10
2023-05-05T21:03:04.962Z,24.10
2023-05-05T21:05:32.077Z,10.57
2023-05-05T21:08:00.881Z,4.30
2023-05-05T21:10:33.110Z,4.80
2023-05-05T21:13:02.677Z,6.47
2023-05-05T21:15:29.807Z,6.18
2023-05-05T21:17:57.365Z,5.32
2023-05-05T21:20:24.472Z,8.63
2023-05-05T21:22:51.709Z,8.00
2023-05-05T21:25:21.680Z,5.40
2023-05-05T21:27:50.095Z,5.50
2023-05-05T21:30:17.619Z,4.65
2023-05-05T21:32:45.671Z,5.45
2023-05-05T21:35:13.741Z,4.93
2023-05-05T21:37:42.476Z,5.03
2023-05-05T21:40:13.504Z,10.75
2023-05-05T21:42:42.709Z,6.15
2023-05-05T21:45:12.464Z,6.10
2023-05-05T21:47:39.868Z,7.72
2023-05-05T21:50:07.773Z,5.47
2023-05-05T21:52:35.258Z,7.97
2023-05-05T21:55:02.794Z,6.90
2023-05-05T21:57:29.954Z,5.38
2023-05-05T21:59:56.869Z,8.48
2023-05-05T22:02:24.287Z,6.00
2023-05-05T22:04:51.980Z,5.45
2023-05-05T22:07:19.594Z,4.45
2023-05-05T22:09:46.704Z,4.97
2023-05-05T22:12:13.982Z,6.20
2023-05-05T22:14:40.993Z,4.90
2023-05-05T22:17:08.784Z,9.82
2023-05-05T22:19:36.058Z,4.63
2023-05-05T22:22:03.619Z,6.15
2023-05-05T22:24:30.564Z,6.28
2023-05-05T22:26:58.420Z,5.82
2023-05-05T22:29:25.677Z,5.80
2023-05-05T22:31:53.262Z,6.25
2023-05-05T22:34:21.956Z,6.93
2023-05-05T22:36:49.927Z,4.45
2023-05-05T22:39:18.597Z,8.80
2023-05-05T22:41:47.147Z,6.68
2023-05-05T22:44:14.234Z,5.25
2023-05-05T22:46:42.432Z,5.88
2023-05-05T22:49:09.568Z,4.88
2023-05-05T22:51:36.734Z,5.13
2023-05-05T22:54:04.104Z,6.18
2023-05-05T22:56:31.280Z,8.40
2023-05-05T22:58:58.249Z,6.07
2023-05-05T23:01:26.209Z,4.30
2023-05-05T23:03:53.435Z,4.50
2023-05-05T23:06:20.853Z,5.40
2023-05-05T23:08:49.278Z,5.00
2023-05-05T23:11:16.917Z,7.80
2023-05-05T23:13:43.967Z,8.35
2023-05-05T23:16:11.607Z,4.57
2023-05-05T23:18:38.866Z,4.57
2023-05-05T23:21:06.138Z,4.78
2023-05-05T23:23:33.656Z,4.22
2023-05-05T23:26:01.475Z,3.88
2023-05-05T23:28:28.428Z,4.15
2023-05-05T23:30:55.912Z,5.15
2023-05-05T23:33:23.075Z,7.88
2023-05-05T23:35:50.367Z,6.90
2023-05-05T23:38:17.653Z,5.60
2023-05-05T23:40:44.850Z,3.72
2023-05-05T23:43:12.084Z,3.72
2023-05-05T23:45:39.295Z,4.45
2023-05-05T23:48:06.431Z,3.75
2023-05-05T23:50:33.609Z,4.15
2023-05-05T23:53:00.470Z,4.80
2023-05-05T23:55:28.042Z,4.15
2023-05-05T23:57:54.935Z,7.65
